Time;durP1;ratioP1;P1;durP2;ratioP2;P2;SDS_P1;SDS_P2;PMS_P1;PMS_P2;Temp;Humidity;BMP_temperature;BMP_pressure;BME280_temperature;BME280_humidity;BME280_pressure;Samples;Min_cycle;Max_cycle;Signal;HPM_P1;HPM_P2
2023/01/14 00:00:01;;;;;;;21.25;13.63;;;;;;;7.63;100.00;99130.00;5139656;27;20043;-93
2023/01/14 00:02:27;;;;;;;18.42;11.23;;;;;;;7.54;100.00;99108.00;5139700;27;20043;-93
2023/01/14 00:04:53;;;;;;;20.58;10.73;;;;;;;7.69;100.00;99132.59;5139238;27;20522;-94
2023/01/14 00:07:20;;;;;;;19.85;10.95;;;;;;;7.60;100.00;99110.59;5139539;27;20113;-95
2023/01/14 00:09:46;;;;;;;17.40;10.73;;;;;;;7.55;100.00;99095.69;5139451;27;20410;-93
2023/01/14 00:12:12;;;;;;;16.38;10.20;;;;;;;7.71;100.00;99120.22;5139677;27;20138;-95
2023/01/14 00:14:38;;;;;;;14.70;9.85;;;;;;;7.73;100.00;99114.00;5139599;27;20046;-94
2023/01/14 00:17:05;;;;;;;15.88;10.85;;;;;;;7.67;100.00;99099.97;5139590;27;20039;-94
2023/01/14 00:19:31;;;;;;;17.42;10.68;;;;;;;7.63;100.00;99085.88;5139804;27;20056;-94
2023/01/14 00:22:00;;;;;;;24.42;11.20;;;;;;;7.83;100.00;99117.44;5139643;27;20039;-94
2023/01/14 00:24:29;;;;;;;17.85;11.55;;;;;;;7.67;100.00;99094.66;5139802;27;20039;-94
2023/01/14 00:26:56;;;;;;;17.45;10.57;;;;;;;7.66;100.00;99092.94;5139200;27;20046;-94
2023/01/14 00:29:25;;;;;;;16.60;10.80;;;;;;;7.66;100.00;99091.16;5138875;27;20092;-94
2023/01/14 00:31:53;;;;;;;17.33;10.97;;;;;;;7.68;100.00;99097.31;5139311;27;20071;-95
2023/01/14 00:34:20;;;;;;;20.00;10.80;;;;;;;7.75;100.00;99106.06;5136974;27;20446;-94
2023/01/14 00:36:46;;;;;;;17.20;10.02;;;;;;;7.91;100.00;99142.06;5137678;27;20526;-94
2023/01/14 00:39:13;;;;;;;16.48;10.10;;;;;;;7.76;100.00;99110.44;5138791;27;20047;-93
2023/01/14 00:41:41;;;;;;;17.92;10.73;;;;;;;7.91;100.00;99136.75;5138974;27;20047;-94
2023/01/14 00:44:07;;;;;;;15.00;9.60;;;;;;;7.87;100.00;99124.47;5139501;27;20039;-94
2023/01/14 00:46:35;;;;;;;21.40;10.05;;;;;;;7.75;100.00;99116.66;5138613;27;20129;-94
2023/01/14 00:49:04;;;;;;;15.70;9.35;;;;;;;7.78;100.00;99127.19;5139330;27;20051;-94
2023/01/14 00:51:31;;;;;;;17.48;10.00;;;;;;;7.63;100.00;99104.38;5139638;27;20047;-93
2023/01/14 00:53:57;;;;;;;18.13;10.82;;;;;;;7.76;100.00;99115.75;5137510;27;20039;-93
2023/01/14 00:56:24;;;;;;;20.08;10.05;;;;;;;7.75;100.00;99119.28;5137298;27;20100;-94
2023/01/14 00:58:52;;;;;;;19.23;9.45;;;;;;;7.72;100.00;99116.66;5137766;27;20069;-94
2023/01/14 01:01:19;;;;;;;22.25;10.70;;;;;;;7.73;100.00;99100.78;5137525;27;20142;-93
2023/01/14 01:03:47;;;;;;;15.85;9.35;;;;;;;7.64;100.00;99100.88;5138647;27;20091;-93
2023/01/14 01:06:16;;;;;;;16.35;9.10;;;;;;;7.60;100.00;99093.84;5138195;27;20088;-93
2023/01/14 01:08:42;;;;;;;19.33;10.25;;;;;;;7.57;100.00;99099.19;5137856;27;20047;-94
2023/01/14 01:11:09;;;;;;;14.82;9.63;;;;;;;7.61;100.00;99104.44;5136879;27;20383;-93
2023/01/14 01:13:36;;;;;;;16.90;9.57;;;;;;;7.66;100.00;99114.09;5136290;27;20039;-93
2023/01/14 01:16:07;;;;;;;13.48;8.60;;;;;;;7.67;100.00;99107.91;5137313;27;20043;-93
2023/01/14 01:18:33;;;;;;;14.90;9.52;;;;;;;7.56;100.00;99097.41;5138439;27;20035;-93
2023/01/14 01:21:08;;;;;;;15.07;8.40;;;;;;;7.58;100.00;99099.16;5138577;27;20043;-94
2023/01/14 01:23:34;;;;;;;15.85;8.70;;;;;;;7.67;100.00;99106.13;5138313;27;20040;-93
2023/01/14 01:26:02;;;;;;;12.27;8.38;;;;;;;7.48;100.00;99080.72;5138956;27;20043;-93
2023/01/14 01:28:28;;;;;;;14.95;8.52;;;;;;;7.42;100.00;99094.91;5118918;28;20047;-94
2023/01/14 01:31:00;;;;;;;15.18;9.05;;;;;;;7.26;100.00;99093.28;5118988;28;20048;-94
2023/01/14 01:33:31;;;;;;;14.82;9.43;;;;;;;7.25;100.00;99107.41;5127633;27;20043;-93
2023/01/14 01:36:01;;;;;;;13.77;8.75;;;;;;;7.28;100.00;99123.25;5139107;27;20061;-94
2023/01/14 01:38:27;;;;;;;13.98;8.77;;;;;;;6.89;100.00;99090.91;5139835;27;20100;-94
2023/01/14 01:40:53;;;;;;;14.73;8.55;;;;;;;6.83;100.00;99114.75;5139582;27;20492;-95
2023/01/14 01:43:21;;;;;;;15.77;8.75;;;;;;;6.61;100.00;99109.59;5137867;27;20051;-93
2023/01/14 01:45:51;;;;;;;13.20;8.38;;;;;;;6.41;100.00;99107.06;5137420;27;20039;-94
2023/01/14 01:48:19;;;;;;;;;;;;;;;6.42;100.00;99129.06;5138561;27;20043;-94
2023/01/14 01:50:49;;;;;;;14.70;8.77;;;;;;;6.27;100.00;99122.97;5137829;27;19915;-94
2023/01/14 01:53:19;;;;;;;17.52;8.52;;;;;;;6.19;100.00;99140.59;5137217;27;20110;-94
2023/01/14 01:55:51;;;;;;;15.88;9.48;;;;;;;6.16;100.00;99152.06;5137556;27;20103;-93
2023/01/14 01:58:22;;;;;;;13.10;8.50;;;;;;;5.92;100.00;99121.31;5137075;27;20049;-94
2023/01/14 02:00:47;;;;;;;15.70;10.20;;;;;;;5.96;100.00;99123.09;5137416;27;20138;-94
2023/01/14 02:03:19;;;;;;;19.90;9.13;;;;;;;6.00;100.00;99121.31;5138731;28;20062;-92
2023/01/14 02:05:49;;;;;;;17.02;10.10;;;;;;;6.10;100.00;99138.00;5137967;28;20604;-95
2023/01/14 02:08:15;;;;;;;15.73;9.23;;;;;;;5.95;100.00;99097.56;5138327;28;20035;-93
2023/01/14 02:11:04;;;;;;;19.23;10.25;;;;;;;6.01;100.00;99114.25;5138187;28;20039;-93
2023/01/14 02:13:44;;;;;;;16.65;10.10;;;;;;;5.95;100.00;99105.47;5137721;28;20050;-93
2023/01/14 02:16:17;;;;;;;16.63;10.15;;;;;;;6.19;100.00;99140.59;5131793;28;20053;-93
2023/01/14 02:19:08;;;;;;;15.20;9.32;;;;;;;6.15;100.00;99112.44;5136596;28;20043;-94
2023/01/14 02:21:42;;;;;;;21.65;10.70;;;;;;;6.40;100.00;99131.72;5137064;27;20042;-93
2023/01/14 02:24:41;;;;;;;17.65;10.00;;;;;;;6.41;100.00;99114.13;5112496;28;20430;-93
2023/01/14 02:27:40;;;;;;;19.60;11.88;;;;;;;6.50;100.00;99116.69;5106488;28;20058;-92
2023/01/14 02:30:24;;;;;;;19.77;11.52;;;;;;;6.69;100.00;99121.00;5113478;28;20040;-94
2023/01/14 02:32:55;;;;;;;21.42;11.52;;;;;;;6.69;100.00;99104.28;5114855;28;20067;-93
2023/01/14 02:35:35;;;;;;;20.38;11.65;;;;;;;6.73;100.00;99116.59;5116964;28;20115;-93
2023/01/14 02:38:19;;;;;;;17.90;10.05;;;;;;;6.78;100.00;99120.06;5115868;28;20059;-93
2023/01/14 02:40:51;;;;;;;17.52;10.00;;;;;;;6.80;100.00;99097.16;5114280;28;20040;-93
2023/01/14 02:46:29;;;;;;;19.42;10.60;;;;;;;6.88;100.00;99107.69;5135905;27;20382;-94
2023/01/14 02:48:56;;;;;;;17.92;10.57;;;;;;;6.97;100.00;99118.19;5117853;28;20039;-95
2023/01/14 02:51:23;;;;;;;17.17;11.50;;;;;;;6.82;100.00;99086.56;5119891;27;20047;-94
2023/01/14 02:53:52;;;;;;;15.60;10.38;;;;;;;6.93;100.00;99114.69;5119624;28;20054;-94
2023/01/14 02:56:19;;;;;;;17.30;10.23;;;;;;;6.88;100.00;99116.47;5117470;28;20040;-95
2023/01/14 02:59:05;;;;;;;15.80;9.15;;;;;;;6.97;100.00;99128.75;5126169;28;20039;-94
2023/01/14 03:01:47;;;;;;;16.52;9.52;;;;;;;6.87;100.00;99111.19;5118162;28;20047;-94
2023/01/14 03:04:33;;;;;;;21.48;10.68;;;;;;;6.74;100.00;99097.19;5112769;28;20035;-94
2023/01/14 03:07:10;;;;;;;15.43;9.95;;;;;;;6.75;100.00;99091.91;5117682;28;20404;-94
2023/01/14 03:09:52;;;;;;;14.88;9.50;;;;;;;6.90;100.00;99120.00;5096905;28;20044;-94
2023/01/14 03:12:29;;;;;;;17.40;9.30;;;;;;;6.75;100.00;99089.25;5096940;28;20043;-95
2023/01/14 03:14:59;;;;;;;14.13;9.02;;;;;;;6.96;100.00;99116.41;5117358;28;20047;-94
2023/01/14 03:17:32;;;;;;;16.05;9.40;;;;;;;6.78;100.00;99072.50;5117281;28;20050;-95
2023/01/14 03:20:06;;;;;;;17.55;9.65;;;;;;;6.87;100.00;99098.84;5117136;28;20035;-94
2023/01/14 03:22:33;;;;;;;13.80;9.32;;;;;;;6.88;100.00;99115.63;5116867;27;20047;-94
2023/01/14 03:25:02;;;;;;;15.15;8.43;;;;;;;6.91;100.00;99123.50;5137397;27;20050;-95
2023/01/14 03:27:34;;;;;;;15.38;9.10;;;;;;;6.79;100.00;99104.22;5132461;27;20047;-93
2023/01/14 03:30:05;;;;;;;24.15;12.70;;;;;;;6.77;100.00;99105.13;5130090;28;20043;-93
2023/01/14 03:32:39;;;;;;;23.48;13.70;;;;;;;6.79;100.00;99116.56;5122117;27;20043;-94
2023/01/14 03:35:09;;;;;;;28.10;14.40;;;;;;;6.81;100.00;99119.16;5137139;27;20458;-95
2023/01/14 03:37:42;;;;;;;27.02;13.48;;;;;;;6.66;100.00;99110.47;5137202;27;20045;-93
2023/01/14 03:40:15;;;;;;;19.98;12.98;;;;;;;6.73;100.00;99135.97;5134058;27;20067;-94
2023/01/14 03:42:45;;;;;;;22.35;11.95;;;;;;;6.60;100.00;99142.19;5117693;28;20047;-94
2023/01/14 03:45:17;;;;;;;17.88;10.35;;;;;;;6.69;100.00;99165.06;5115721;28;20079;-94
2023/01/14 03:47:47;;;;;;;22.73;11.52;;;;;;;6.51;100.00;99135.19;5116724;28;20096;-95
2023/01/14 03:50:16;;;;;;;15.70;10.20;;;;;;;6.49;100.00;99136.09;5115874;28;20047;-94
2023/01/14 03:52:58;;;;;;;16.10;9.68;;;;;;;6.47;100.00;99138.72;5116269;28;20100;-94
2023/01/14 03:55:36;;;;;;;15.30;9.05;;;;;;;6.53;100.00;99162.50;5115344;28;20047;-93
2023/01/14 03:58:09;;;;;;;18.75;10.35;;;;;;;6.27;100.00;99144.09;5102402;28;20134;-94
2023/01/14 04:00:41;;;;;;;14.15;9.07;;;;;;;6.33;100.00;99170.50;5101914;28;20105;-94
2023/01/14 04:03:09;;;;;;;15.38;8.88;;;;;;;6.03;100.00;99138.88;5114557;27;20058;-94
2023/01/14 04:05:37;;;;;;;17.33;9.88;;;;;;;5.91;100.00;99145.06;5123739;27;20043;-95
2023/01/14 04:08:04;;;;;;;17.52;11.07;;;;;;;5.90;100.00;99160.03;5107588;28;20126;-94
2023/01/14 04:10:30;;;;;;;24.17;13.55;;;;;;;5.76;100.00;99140.69;5101571;28;20044;-95
2023/01/14 04:15:56;;;;;;;28.33;16.75;;;;;;;5.81;100.00;99175.84;5114009;27;20372;-94
2023/01/14 04:18:22;;;;;;;31.80;17.70;;;;;;;5.64;100.00;99159.16;5113043;28;20051;-93
2023/01/14 04:20:51;;;;;;;29.13;17.92;;;;;;;5.59;100.00;99138.06;5113050;28;20042;-93
2023/01/14 04:23:17;;;;;;;31.00;17.92;;;;;;;5.49;100.00;99142.47;5112582;28;20068;-93
2023/01/14 04:25:43;;;;;;;26.77;16.33;;;;;;;5.49;100.00;99152.16;5112532;28;20039;-93
2023/01/14 04:28:09;;;;;;;29.67;16.90;;;;;;;5.35;100.00;99157.41;5113869;28;20044;-95
2023/01/14 04:30:35;;;;;;;22.33;16.13;;;;;;;5.08;100.00;99139.84;5113755;28;20461;-93
2023/01/14 04:33:03;;;;;;;24.00;13.32;;;;;;;5.18;100.00;99160.03;5112770;28;20496;-92
2023/01/14 04:35:29;;;;;;;22.38;13.10;;;;;;;5.02;100.00;99147.75;5113477;28;20133;-95
2023/01/14 04:37:55;;;;;;;25.80;13.30;;;;;;;5.07;100.00;99169.69;5113524;28;20059;-94
2023/01/14 04:40:23;;;;;;;22.42;14.23;;;;;;;5.12;100.00;99189.94;5113001;28;20072;-93
2023/01/14 04:42:53;;;;;;;23.98;15.80;;;;;;;5.07;100.00;99185.53;5113888;28;20048;-94
2023/01/14 04:45:19;;;;;;;;;;;;;;;5.14;100.00;99213.66;5114547;28;20042;-94
2023/01/14 04:47:50;;;;;;;23.10;11.90;;;;;;;5.10;100.00;99214.53;5114100;28;19916;-95
2023/01/14 04:53:26;;;;;;;21.02;10.52;;;;;;;4.94;100.00;99209.22;5190850;27;20136;-95
2023/01/14 04:55:55;;;;;;;21.73;11.33;;;;;;;4.92;100.00;99199.53;5156230;27;20042;-95
2023/01/14 04:58:21;;;;;;;18.00;10.88;;;;;;;5.00;100.00;99237.34;5157164;27;20047;-95
2023/01/14 05:00:50;;;;;;;18.63;10.85;;;;;;;4.93;100.00;99232.94;5156438;27;20047;-95
2023/01/14 05:03:20;;;;;;;21.67;11.32;;;;;;;4.69;100.00;99208.25;5157048;27;20043;-94
2023/01/14 05:05:48;;;;;;;18.67;10.30;;;;;;;4.73;100.00;99228.47;5156262;27;20089;-94
2023/01/14 05:08:14;;;;;;;19.33;10.15;;;;;;;4.70;100.00;99228.44;5154998;27;20279;-95
2023/01/14 05:10:43;;;;;;;20.52;11.68;;;;;;;4.63;100.00;99208.25;5156250;27;20142;-93
2023/01/14 05:13:11;;;;;;;20.58;12.05;;;;;;;4.67;100.00;99209.13;5156552;27;20046;-95
2023/01/14 05:15:42;;;;;;;21.07;11.13;;;;;;;4.69;100.00;99215.28;5156528;27;20039;-94
2023/01/14 05:18:11;;;;;;;19.30;11.43;;;;;;;4.66;100.00;99226.72;5156331;27;20305;-96
2023/01/14 05:20:37;;;;;;;16.05;10.82;;;;;;;4.77;100.00;99244.28;5153429;27;20096;-95
2023/01/14 05:23:05;;;;;;;17.73;10.85;;;;;;;4.72;100.00;99236.38;5154564;27;20039;-95
2023/01/14 05:25:32;;;;;;;21.42;11.90;;;;;;;4.63;100.00;99241.59;5156228;27;20047;-95
2023/01/14 05:28:01;;;;;;;21.35;12.25;;;;;;;4.49;100.00;99223.13;5156288;27;20066;-95
2023/01/14 05:30:27;;;;;;;18.40;12.05;;;;;;;4.44;100.00;99232.72;5156784;27;20054;-95
2023/01/14 05:32:57;;;;;;;22.67;12.68;;;;;;;4.37;100.00;99234.47;5156968;27;20039;-94
2023/01/14 05:35:26;;;;;;;20.08;12.38;;;;;;;4.58;100.00;99264.44;5157410;27;20038;-96
2023/01/14 05:37:52;;;;;;;18.88;11.02;;;;;;;4.45;100.00;99266.97;5157606;27;20043;-94
2023/01/14 05:40:21;;;;;;;20.80;12.13;;;;;;;4.26;100.00;99242.28;5156444;27;20102;-95
2023/01/14 05:45:48;;;;;;;17.15;11.95;;;;;;;4.36;100.00;99269.56;5096110;27;20383;-95
2023/01/14 05:48:15;;;;;;;24.88;13.57;;;;;;;4.24;100.00;99267.72;5095168;28;20390;-94
2023/01/14 05:50:43;;;;;;;21.63;13.18;;;;;;;4.26;100.00;99273.88;5094609;28;20510;-95
2023/01/14 05:53:09;;;;;;;20.85;13.93;;;;;;;4.03;100.00;99246.53;5094044;28;20072;-94
2023/01/14 05:55:38;;;;;;;22.25;13.68;;;;;;;4.09;100.00;99260.59;5093548;28;20052;-94
2023/01/14 05:58:05;;;;;;;25.00;15.18;;;;;;;3.97;100.00;99259.63;5093778;28;20059;-94
2023/01/14 06:06:36;;;;;;;26.88;15.23;;;;;;;3.98;100.00;99259.66;5110085;27;20366;-94
2023/01/14 06:09:04;;;;;;;22.08;15.35;;;;;;;4.09;100.00;99272.91;5092517;28;20083;-94
2023/01/14 06:11:32;;;;;;;22.43;14.33;;;;;;;3.96;100.00;99268.41;5094123;28;20076;-95
2023/01/14 06:13:59;;;;;;;27.25;15.52;;;;;;;3.81;100.00;99249.00;5096336;28;20068;-94
2023/01/14 06:16:27;;;;;;;22.70;13.45;;;;;;;3.97;100.00;99284.22;5098872;28;20048;-96
2023/01/14 06:18:56;;;;;;;19.95;13.27;;;;;;;3.77;100.00;99256.84;5098044;28;20157;-94
2023/01/14 06:21:26;;;;;;;26.70;14.98;;;;;;;3.83;100.00;99265.69;5096144;28;20112;-96
2023/01/14 06:23:53;;;;;;;30.63;16.65;;;;;;;3.82;100.00;99265.69;5099274;28;20355;-94
2023/01/14 06:26:21;;;;;;;25.98;17.15;;;;;;;3.84;100.00;99267.47;5097450;28;20040;-94
2023/01/14 06:28:47;;;;;;;29.08;17.23;;;;;;;4.12;100.00;99278.19;5094961;28;20551;-96
2023/01/14 06:31:15;;;;;;;29.15;17.90;;;;;;;4.15;100.00;99277.34;5096142;28;20486;-96
2023/01/14 06:33:41;;;;;;;30.20;17.88;;;;;;;4.04;100.00;99264.09;5099796;28;20131;-95
2023/01/14 06:36:37;;;;;;;28.58;17.75;;;;;;;4.22;100.00;99289.66;5100080;28;20068;-95
2023/01/14 06:39:07;;;;;;;32.00;18.05;;;;;;;4.31;100.00;99289.72;5090741;28;20055;-95
2023/01/14 06:41:33;;;;;;;30.08;18.23;;;;;;;4.25;100.00;99298.47;5097953;28;20044;-95
2023/01/14 06:44:00;;;;;;;29.63;18.60;;;;;;;4.08;100.00;99285.19;5099225;28;20051;-95
2023/01/14 06:46:26;;;;;;;31.15;17.83;;;;;;;4.10;100.00;99309.75;5101021;28;20036;-95
2023/01/14 06:48:53;;;;;;;28.83;17.35;;;;;;;3.93;100.00;99274.53;5100380;28;20115;-96
2023/01/14 06:51:20;;;;;;;32.55;18.13;;;;;;;4.08;100.00;99274.66;5100705;28;20049;-94
2023/01/14 06:53:49;;;;;;;32.00;18.90;;;;;;;4.34;100.00;99300.28;5100796;28;20062;-94
2023/01/14 06:56:17;;;;;;;27.40;18.30;;;;;;;4.19;100.00;99274.72;5099518;28;20072;-94
2023/01/14 06:58:50;;;;;;;27.55;18.65;;;;;;;4.12;100.00;99272.94;5099061;28;20074;-95
2023/01/14 07:01:20;;;;;;;29.15;19.13;;;;;;;4.20;100.00;99294.03;5100415;28;20135;-94
2023/01/14 07:03:46;;;;;;;30.42;17.92;;;;;;;4.07;100.00;99278.13;5100234;28;20071;-95
2023/01/14 07:06:12;;;;;;;28.25;17.15;;;;;;;4.16;100.00;99287.84;5099275;28;20075;-95
2023/01/14 07:08:38;;;;;;;28.50;18.70;;;;;;;4.15;100.00;99290.50;5100182;28;20048;-94
2023/01/14 07:11:07;;;;;;;29.45;18.13;;;;;;;4.14;100.00;99286.94;5098580;28;20113;-96
2023/01/14 07:13:39;;;;;;;27.08;17.02;;;;;;;4.19;100.00;99274.72;5099043;28;20045;-94
2023/01/14 07:16:06;;;;;;;29.35;17.02;;;;;;;4.34;100.00;99292.38;5095508;28;20041;-95
2023/01/14 07:18:32;;;;;;;34.33;18.58;;;;;;;4.50;100.00;99288.06;5085144;28;20068;-95
2023/01/14 07:21:02;;;;;;;33.95;20.38;;;;;;;4.80;100.00;99291.75;5085757;28;20052;-95
2023/01/14 07:23:29;;;;;;;32.25;19.83;;;;;;;4.91;100.00;99288.25;5085887;28;20048;-94
2023/01/14 07:25:56;;;;;;;31.55;20.55;;;;;;;5.03;100.00;99300.63;5081309;28;20497;-95
2023/01/14 07:28:27;;;;;;;37.35;23.25;;;;;;;5.04;100.00;99297.09;5081420;28;20051;-96
2023/01/14 07:30:55;;;;;;;36.38;23.95;;;;;;;4.97;100.00;99282.16;5082235;28;20044;-95
2023/01/14 07:33:22;;;;;;;43.25;24.17;;;;;;;5.07;100.00;99312.03;5082403;28;20135;-94
2023/01/14 07:35:51;;;;;;;30.70;19.17;;;;;;;5.08;100.00;99303.28;5080115;28;20304;-96
2023/01/14 07:38:18;;;;;;;36.70;21.92;;;;;;;5.08;100.00;99296.25;5083901;28;20049;-94
2023/01/14 07:40:44;;;;;;;33.00;20.23;;;;;;;5.03;100.00;99307.63;5082223;28;20051;-95
2023/01/14 07:43:10;;;;;;;32.60;19.67;;;;;;;4.96;100.00;99306.72;5081099;28;20049;-93
2023/01/14 07:45:36;;;;;;;35.63;21.05;;;;;;;5.08;100.00;99309.44;5081354;28;20112;-93
2023/01/14 07:48:03;;;;;;;33.42;20.08;;;;;;;5.26;100.00;99315.63;5082626;28;20045;-96
2023/01/14 07:50:30;;;;;;;32.97;20.02;;;;;;;5.39;100.00;99313.91;5081487;28;20040;-95
2023/01/14 07:52:58;;;;;;;35.17;20.35;;;;;;;5.46;100.00;99310.41;5082269;28;20135;-93
2023/01/14 07:55:27;;;;;;;34.53;21.42;;;;;;;5.56;100.00;99325.38;5083296;28;20508;-95
2023/01/14 07:57:55;;;;;;;36.00;20.83;;;;;;;5.64;100.00;99317.47;5082302;28;20098;-95
2023/01/14 08:00:21;;;;;;;32.95;21.08;;;;;;;5.73;100.00;99314.88;5081618;28;20061;-95
2023/01/14 08:02:49;;;;;;;33.60;22.02;;;;;;;6.00;100.00;99344.81;5079637;28;20044;-95
2023/01/14 08:05:19;;;;;;;39.05;23.85;;;;;;;6.13;100.00;99330.75;5082115;28;20139;-95
2023/01/14 08:07:46;;;;;;;40.13;22.65;;;;;;;6.36;100.00;99328.97;5082255;28;20067;-94
2023/01/14 08:10:14;;;;;;;45.15;24.58;;;;;;;6.41;100.00;99325.44;5082907;28;20048;-95
2023/01/14 08:12:40;;;;;;;46.53;26.33;;;;;;;6.49;100.00;99352.75;5082885;28;20071;-95
2023/01/14 08:15:12;;;;;;;43.35;27.75;;;;;;;6.51;100.00;99354.50;5082659;28;20020;-94
2023/01/14 08:17:39;;;;;;;51.15;30.85;;;;;;;6.38;100.00;99328.97;5081033;28;20049;-95
2023/01/14 08:20:06;;;;;;;80.75;45.30;;;;;;;6.61;100.00;99347.41;5079079;28;20136;-95
2023/01/14 08:22:33;;;;;;;71.95;44.58;;;;;;;6.63;100.00;99336.84;5078699;28;20052;-95
2023/01/14 08:25:00;;;;;;;42.97;25.63;;;;;;;6.75;100.00;99353.56;5078880;28;20490;-96
2023/01/14 08:27:30;;;;;;;38.53;24.30;;;;;;;6.74;100.00;99354.47;5080484;28;20041;-96
2023/01/14 08:29:56;;;;;;;40.88;24.15;;;;;;;6.76;100.00;99357.94;5077822;28;20066;-96
2023/01/14 08:32:23;;;;;;;35.40;24.63;;;;;;;6.95;100.00;99387.88;5077168;28;20072;-95
2023/01/14 08:34:49;;;;;;;35.70;23.25;;;;;;;6.83;100.00;99366.78;5076772;28;20098;-96
2023/01/14 08:37:15;;;;;;;41.15;24.58;;;;;;;6.87;100.00;99368.50;5076618;28;20095;-95
2023/01/14 08:39:42;;;;;;;95.93;43.95;;;;;;;7.07;100.00;99371.13;5076648;28;20064;-95
2023/01/14 08:42:08;;;;;;;113.93;54.13;;;;;;;7.20;100.00;99364.88;5076562;28;20059;-95
2023/01/14 08:44:34;;;;;;;97.90;48.92;;;;;;;7.32;100.00;99381.59;5076805;28;20037;-95
2023/01/14 08:47:01;;;;;;;87.78;44.42;;;;;;;7.27;100.00;99386.91;5080668;28;20051;-95
2023/01/14 08:49:28;;;;;;;71.38;40.33;;;;;;;7.30;100.00;99391.28;5080213;28;20067;-95
2023/01/14 08:51:55;;;;;;;69.20;39.17;;;;;;;7.43;100.00;99389.47;5076720;28;20035;-95
2023/01/14 08:54:21;;;;;;;51.92;31.23;;;;;;;7.45;100.00;99393.00;5075859;28;20052;-95
2023/01/14 08:56:51;;;;;;;48.33;27.85;;;;;;;7.49;100.00;99389.47;5075150;28;20040;-94
2023/01/14 08:59:17;;;;;;;51.25;31.20;;;;;;;7.62;100.00;99399.09;5075451;28;20106;-95
2023/01/14 09:01:43;;;;;;;49.08;28.48;;;;;;;7.53;100.00;99384.13;5076454;28;20048;-94
2023/01/14 09:04:09;;;;;;;54.42;30.77;;;;;;;7.61;100.00;99385.00;5075656;28;20033;-94
2023/01/14 09:17:04;;;;;;;52.45;29.83;;;;;;;7.66;100.00;99395.53;5075929;28;20037;-95
2023/01/14 09:28:51;;;;;;;27.77;17.23;;;;;;;8.18;100.00;99410.25;6266646;22;20082;-94
2023/01/14 09:31:17;;;;;;;30.23;17.43;;;;;;;8.02;100.00;99390.91;6239080;22;20023;-96
2023/01/14 09:33:43;;;;;;;24.95;17.38;;;;;;;8.21;100.00;99389.00;6236366;23;20019;-95
2023/01/14 09:36:09;;;;;;;29.63;20.08;;;;;;;8.10;100.00;99409.41;6237427;23;20027;-95
2023/01/14 09:38:35;;;;;;;28.67;17.85;;;;;;;7.90;100.00;99404.25;6207758;23;20483;-96
2023/01/14 09:41:02;;;;;;;33.63;19.90;;;;;;;7.71;100.00;99411.41;6206375;23;20047;-94
2023/01/14 09:43:31;;;;;;;34.08;20.33;;;;;;;7.78;100.00;99406.06;6208727;23;20031;-95
2023/01/14 09:46:00;;;;;;;47.53;19.83;;;;;;;7.99;100.00;99402.41;6206036;23;20020;-94
2023/01/14 09:48:30;;;;;;;27.27;16.70;;;;;;;8.27;100.00;99399.56;6205478;23;20052;-95
2023/01/14 09:51:07;;;;;;;27.15;18.85;;;;;;;8.51;100.00;99417.06;6205527;23;20044;-95
2023/01/14 09:53:53;;;;;;;25.20;15.43;;;;;;;8.64;100.00;99402.81;6207201;23;20020;-96
2023/01/14 09:56:24;;;;;;;24.55;13.43;;;;;;;8.95;100.00;99391.91;6206410;23;20021;-95
2023/01/14 09:58:54;;;;;;;21.48;13.23;;;;;;;9.19;100.00;99390.75;6207420;23;20027;-96
2023/01/14 10:01:29;;;;;;;22.05;13.50;;;;;;;9.38;100.00;99388.75;6206910;23;20043;-95
2023/01/14 10:04:04;;;;;;;23.70;13.50;;;;;;;9.50;100.00;99389.50;6207285;23;20017;-95
2023/01/14 10:06:32;;;;;;;20.60;12.07;;;;;;;9.58;97.93;99407.09;6207528;23;20017;-95
2023/01/14 10:09:05;;;;;;;19.73;11.05;;;;;;;9.74;96.43;99407.78;6206370;23;20021;-95
2023/01/14 10:11:35;;;;;;;15.45;9.57;;;;;;;9.71;96.93;99383.03;6206439;23;20024;-93
2023/01/14 10:14:09;;;;;;;17.85;8.18;;;;;;;10.12;93.25;99410.78;6205852;23;20508;-94
2023/01/14 10:16:41;;;;;;;15.77;8.13;;;;;;;10.30;91.77;99409.66;6206255;23;20028;-95
2023/01/14 10:19:14;;;;;;;13.57;7.70;;;;;;;10.29;87.43;99395.50;6204920;23;20091;-94
2023/01/14 10:21:45;;;;;;;14.63;6.25;;;;;;;10.46;86.47;99403.19;6205726;23;20016;-93
2023/01/14 10:24:15;;;;;;;13.48;7.72;;;;;;;10.53;85.99;99401.31;6207012;23;20020;-93
2023/01/14 10:26:43;;;;;;;14.52;7.60;;;;;;;10.42;83.67;99389.06;6204967;23;20021;-94
2023/01/14 10:29:14;;;;;;;12.07;7.18;;;;;;;10.17;84.07;99392.97;6200620;23;20017;-94
2023/01/14 10:31:45;;;;;;;13.68;8.13;;;;;;;10.21;84.81;99400.91;6200131;23;20020;-94
2023/01/14 10:34:13;;;;;;;12.43;7.75;;;;;;;10.36;86.58;99407.78;6198862;23;20352;-94
2023/01/14 10:36:39;;;;;;;15.20;7.50;;;;;;;10.27;84.54;99408.75;6198128;23;20061;-93
2023/01/14 10:39:07;;;;;;;13.00;6.97;;;;;;;10.33;85.03;99399.84;6198905;23;20028;-96
2023/01/14 10:44:37;;;;;;;14.52;7.40;;;;;;;10.29;84.15;99392.84;5077876;28;20363;-94
2023/01/14 10:47:08;;;;;;;15.93;8.25;;;;;;;10.31;83.68;99412.28;5021929;28;20038;-94
2023/01/14 10:49:38;;;;;;;13.60;7.25;;;;;;;10.26;82.30;99387.53;5019950;28;20045;-94
2023/01/14 10:52:22;;;;;;;13.18;7.13;;;;;;;10.41;83.30;99397.97;5021460;28;20049;-94
2023/01/14 10:54:56;;;;;;;13.20;6.95;;;;;;;10.33;81.63;99372.41;5040723;28;20053;-96
2023/01/14 10:57:23;;;;;;;13.60;8.65;;;;;;;10.27;81.89;99360.03;5039250;28;20049;-96
2023/01/14 10:59:52;;;;;;;16.88;7.43;;;;;;;10.42;81.44;99367.78;5034835;28;20054;-96
2023/01/14 11:02:28;;;;;;;10.35;6.90;;;;;;;10.32;80.55;99349.38;5021947;28;20046;-95
2023/01/14 11:04:57;;;;;;;82.40;33.55;;;;;;;10.44;81.03;99347.38;5021284;28;20046;-94
2023/01/14 11:07:32;;;;;;;14.75;7.80;;;;;;;10.40;80.32;99347.47;5023541;28;20050;-95
2023/01/14 11:10:15;;;;;;;12.45;7.20;;;;;;;10.37;80.84;99345.75;5020555;28;20053;-95
2023/01/14 11:12:40;;;;;;;15.38;7.38;;;;;;;10.53;82.02;99350.78;5037822;28;20394;-94
2023/01/14 11:15:37;;;;;;;16.52;7.85;;;;;;;10.52;80.66;99346.34;5039129;28;20045;-95
2023/01/14 11:18:21;;;;;;;11.13;6.10;;;;;;;10.64;79.64;99344.38;5038843;28;20145;-95
2023/01/14 11:21:00;;;;;;;11.93;5.88;;;;;;;10.64;80.77;99325.75;5041731;28;20060;-94
2023/01/14 11:23:32;;;;;;;11.05;5.15;;;;;;;10.62;75.67;99322.22;5043727;28;20041;-94
2023/01/14 11:26:03;;;;;;;9.13;5.07;;;;;;;10.60;76.54;99318.72;5043800;28;20065;-96
2023/01/14 11:28:29;;;;;;;10.25;6.20;;;;;;;10.66;77.33;99331.91;5043124;28;20080;-96
2023/01/14 11:30:57;;;;;;;9.98;5.60;;;;;;;10.62;76.64;99313.38;5043413;28;20049;-94
2023/01/14 11:33:28;;;;;;;11.80;5.85;;;;;;;10.61;77.16;99306.31;5044588;28;20115;-95
2023/01/14 11:35:57;;;;;;;9.65;5.47;;;;;;;10.63;75.97;99312.50;5040788;28;20139;-95
2023/01/14 11:38:25;;;;;;;;;;;;;;;10.92;76.36;99345.66;5042457;28;20102;-94
2023/01/14 11:43:53;;;;;;;10.50;5.90;;;;;;;10.85;75.77;99308.50;5138517;27;20414;-94
2023/01/14 11:46:19;;;;;;;11.05;5.70;;;;;;;10.93;75.98;99319.00;5119374;28;20467;-95
2023/01/14 11:48:58;;;;;;;10.50;5.75;;;;;;;11.04;73.84;99318.81;5117693;28;20075;-94
2023/01/14 11:51:27;;;;;;;12.05;6.35;;;;;;;10.87;75.24;99279.22;5120452;28;20040;-94
2023/01/14 11:53:54;;;;;;;;;;;;;;;11.15;75.13;99310.59;5118877;28;20073;-95
2023/01/14 11:56:26;;;;;;;12.85;5.55;;;;;;;11.13;74.46;99313.28;5119055;28;19983;-95
2023/01/14 11:58:54;;;;;;;9.40;5.13;;;;;;;11.02;73.51;99288.69;5119509;28;20047;-95
2023/01/14 12:01:26;;;;;;;10.52;5.00;;;;;;;11.01;70.87;99285.13;5119953;28;20116;-95
2023/01/14 12:04:02;;;;;;;13.65;4.80;;;;;;;10.99;69.63;99275.41;5117863;28;20096;-95
2023/01/14 12:06:31;;;;;;;9.63;5.50;;;;;;;11.10;69.70;99266.31;5118437;28;20047;-95
2023/01/14 12:09:02;;;;;;;12.82;5.40;;;;;;;11.12;71.78;99265.41;5117077;28;20047;-95
2023/01/14 12:11:34;;;;;;;8.48;4.63;;;;;;;11.13;71.93;99261.84;5115723;28;20522;-94
2023/01/14 12:27:43;;;;;;;9.43;4.28;;;;;;;11.27;67.64;99249.09;5041972;27;2179051;-96
2023/01/14 12:30:25;;;;;;;8.93;5.00;;;;;;;11.36;68.69;99248.00;5079286;28;20044;-95